createdAt,value
2023-02-25T00:02:07.653Z,69.46
2023-02-25T00:04:36.241Z,71.72
2023-02-25T00:07:05.262Z,68.51
2023-02-25T00:09:33.122Z,68.42
2023-02-25T00:12:02.493Z,67.55
2023-02-25T00:14:30.335Z,66.22
2023-02-25T00:16:58.320Z,68.01
2023-02-25T00:19:27.692Z,68.17
2023-02-25T00:21:55.667Z,65.78
2023-02-25T00:24:23.656Z,66.63
2023-02-25T00:26:51.714Z,65.12
2023-02-25T00:29:22.179Z,67.63
2023-02-25T00:31:50.445Z,65.84
2023-02-25T00:34:18.703Z,72.20
2023-02-25T00:36:46.697Z,70.24
2023-02-25T00:39:15.111Z,70.73
2023-02-25T00:41:43.160Z,70.75
2023-02-25T00:44:11.412Z,73.08
2023-02-25T00:46:40.631Z,70.33
2023-02-25T00:49:09.993Z,73.86
2023-02-25T00:51:39.664Z,73.08
2023-02-25T00:54:07.477Z,78.99
2023-02-25T00:56:36.258Z,74.72
2023-02-25T00:59:04.327Z,75.79
2023-02-25T01:01:38.069Z,79.09
2023-02-25T01:04:10.377Z,77.74
2023-02-25T01:06:39.914Z,79.98
2023-02-25T01:09:13.929Z,79.94
2023-02-25T01:11:45.563Z,83.77
2023-02-25T01:14:17.633Z,84.64
2023-02-25T01:16:46.424Z,83.67
2023-02-25T01:19:24.743Z,74.21
2023-02-25T01:21:54.461Z,76.86
2023-02-25T01:24:24.048Z,76.86
2023-02-25T01:26:57.001Z,76.93
2023-02-25T01:29:27.220Z,76.27
2023-02-25T01:31:56.917Z,78.03
2023-02-25T01:34:26.974Z,76.82
2023-02-25T01:36:54.718Z,77.00
2023-02-25T01:39:26.283Z,78.67
2023-02-25T01:41:55.555Z,79.33
2023-02-25T01:44:25.532Z,76.68
2023-02-25T01:46:54.933Z,78.98
2023-02-25T01:49:28.923Z,79.14
2023-02-25T01:52:03.792Z,78.62
2023-02-25T01:54:33.216Z,78.63
2023-02-25T01:57:01.167Z,76.67
2023-02-25T01:59:30.819Z,77.01
2023-02-25T02:01:59.293Z,75.33
2023-02-25T02:04:27.884Z,75.42
2023-02-25T02:06:56.930Z,77.13
2023-02-25T02:09:29.993Z,77.12
2023-02-25T02:11:59.169Z,75.60
2023-02-25T02:14:30.784Z,77.60
2023-02-25T02:17:12.911Z,76.34
2023-02-25T02:20:01.160Z,76.33
2023-02-25T02:22:35.756Z,75.86
2023-02-25T02:25:28.945Z,74.54
2023-02-25T02:28:24.320Z,73.15
2023-02-25T02:31:11.099Z,74.10
2023-02-25T02:33:47.549Z,73.71
2023-02-25T02:36:24.847Z,72.21
2023-02-25T02:39:13.154Z,75.35
2023-02-25T02:41:48.195Z,71.50
2023-02-25T02:44:23.328Z,71.44
2023-02-25T02:46:55.092Z,71.60
2023-02-25T02:49:31.346Z,71.31
2023-02-25T02:52:02.975Z,73.20
2023-02-25T02:54:34.187Z,69.23
2023-02-25T02:57:04.139Z,70.73
2023-02-25T02:59:35.672Z,68.27
2023-02-25T03:02:09.318Z,69.34
2023-02-25T03:04:42.822Z,67.58
2023-02-25T03:07:14.272Z,71.05
2023-02-25T03:09:48.148Z,68.80
2023-02-25T03:12:16.155Z,67.67
2023-02-25T03:14:43.965Z,67.24
2023-02-25T03:17:16.699Z,70.76
2023-02-25T03:19:51.844Z,70.93
2023-02-25T03:22:27.772Z,70.91
2023-02-25T03:25:01.999Z,70.62
2023-02-25T03:27:34.324Z,68.98
2023-02-25T03:30:12.504Z,69.51
2023-02-25T03:32:43.726Z,68.42
2023-02-25T03:35:16.096Z,66.16
2023-02-25T03:37:49.405Z,65.19
2023-02-25T03:40:20.900Z,62.52
2023-02-25T03:42:59.740Z,65.10
2023-02-25T03:45:28.276Z,62.43
2023-02-25T03:48:00.119Z,63.82
2023-02-25T03:50:33.860Z,64.75
2023-02-25T03:53:05.090Z,69.15
2023-02-25T03:55:54.180Z,67.14
2023-02-25T03:58:22.198Z,65.05
2023-02-25T04:00:55.710Z,65.29
2023-02-25T04:03:25.872Z,67.09
2023-02-25T04:05:55.540Z,67.12
2023-02-25T04:08:23.608Z,68.26
2023-02-25T04:10:52.313Z,67.91
2023-02-25T04:13:22.422Z,67.85
2023-02-25T04:15:51.795Z,67.28
2023-02-25T04:18:20.508Z,67.65
2023-02-25T04:20:48.555Z,65.90
2023-02-25T04:23:17.839Z,67.14
2023-02-25T04:25:45.963Z,67.93
2023-02-25T04:28:13.750Z,67.88
2023-02-25T04:30:41.639Z,66.21
2023-02-25T04:33:10.923Z,66.12
2023-02-25T04:35:38.869Z,63.93
2023-02-25T04:38:09.136Z,61.25
2023-02-25T04:40:38.472Z,61.45
2023-02-25T04:43:06.288Z,61.36
2023-02-25T04:45:34.341Z,62.98
2023-02-25T04:48:02.163Z,61.74
2023-02-25T04:50:30.047Z,62.53
2023-02-25T04:53:00.199Z,63.41
2023-02-25T04:55:28.201Z,64.52
2023-02-25T04:57:57.889Z,61.75
2023-02-25T05:00:27.719Z,63.57
2023-02-25T05:02:55.501Z,61.59
2023-02-25T05:05:23.292Z,61.86
2023-02-25T05:07:51.152Z,61.16
2023-02-25T05:10:19.031Z,60.45
2023-02-25T05:12:46.928Z,64.12
2023-02-25T05:15:16.202Z,63.77
2023-02-25T05:17:44.037Z,62.47
2023-02-25T05:20:13.110Z,58.66
2023-02-25T05:22:41.620Z,60.75
2023-02-25T05:25:10.465Z,62.75
2023-02-25T05:27:38.302Z,64.99
2023-02-25T05:30:07.203Z,61.72
2023-02-25T05:32:36.446Z,60.76
2023-02-25T05:35:04.607Z,59.86
2023-02-25T05:37:32.848Z,62.18
2023-02-25T05:40:01.258Z,59.79
2023-02-25T05:42:29.082Z,60.10
2023-02-25T05:44:56.953Z,59.11
2023-02-25T05:47:24.763Z,58.98
2023-02-25T05:49:53.910Z,60.30
2023-02-25T05:52:21.684Z,57.93
2023-02-25T05:54:49.662Z,56.70
2023-02-25T05:57:17.658Z,57.29
2023-02-25T05:59:45.744Z,57.60
2023-02-25T06:02:13.601Z,56.86
2023-02-25T06:04:41.518Z,56.16
2023-02-25T06:07:10.657Z,55.70
2023-02-25T06:09:39.900Z,58.26
2023-02-25T06:12:08.120Z,57.48
2023-02-25T06:14:36.107Z,55.96
2023-02-25T06:17:03.980Z,56.71
2023-02-25T06:19:31.773Z,55.63
2023-02-25T06:21:59.542Z,56.25
2023-02-25T06:24:28.617Z,58.02
2023-02-25T06:26:56.348Z,55.56
2023-02-25T06:29:24.376Z,55.43
2023-02-25T06:31:52.326Z,56.68
2023-02-25T06:34:20.213Z,57.56
2023-02-25T06:36:48.046Z,55.72
2023-02-25T06:39:15.781Z,53.77
2023-02-25T06:41:45.247Z,55.29
2023-02-25T06:44:15.517Z,56.83
2023-02-25T06:46:43.580Z,56.96
2023-02-25T06:49:12.473Z,55.44
2023-02-25T06:51:40.459Z,57.15
2023-02-25T06:54:08.333Z,56.85
2023-02-25T06:56:36.124Z,56.06
2023-02-25T06:59:05.322Z,56.42
2023-02-25T07:01:33.331Z,54.38
2023-02-25T07:04:01.328Z,56.89
2023-02-25T07:06:29.355Z,54.81
2023-02-25T07:08:57.322Z,57.43
2023-02-25T07:11:31.474Z,55.85
2023-02-25T07:13:59.306Z,56.01
2023-02-25T07:16:29.911Z,56.04
2023-02-25T07:18:58.274Z,53.10
2023-02-25T07:21:29.304Z,52.62
2023-02-25T07:23:57.904Z,54.85
2023-02-25T07:26:28.277Z,52.82
2023-02-25T07:28:57.381Z,54.57
2023-02-25T07:31:26.509Z,53.61
2023-02-25T07:33:57.029Z,53.27
2023-02-25T07:36:27.511Z,53.49
2023-02-25T07:38:55.308Z,55.29
2023-02-25T07:41:23.401Z,53.15
2023-02-25T07:43:52.367Z,51.43
2023-02-25T07:46:20.285Z,54.21
2023-02-25T07:48:48.388Z,55.64
2023-02-25T07:51:19.453Z,52.56
2023-02-25T07:53:47.666Z,54.43
2023-02-25T07:56:16.595Z,53.93
2023-02-25T07:58:44.683Z,50.85
2023-02-25T08:01:19.568Z,52.84
2023-02-25T08:03:47.939Z,52.22
2023-02-25T08:06:17.405Z,50.42
2023-02-25T08:08:45.481Z,50.68
2023-02-25T08:11:15.682Z,53.18
2023-02-25T08:13:43.671Z,53.79
2023-02-25T08:16:14.050Z,52.16
2023-02-25T08:18:43.511Z,53.00
2023-02-25T08:21:14.528Z,52.74
2023-02-25T08:23:44.066Z,51.70
2023-02-25T08:26:12.035Z,50.47
2023-02-25T08:28:40.065Z,50.05
2023-02-25T08:31:11.369Z,51.54
2023-02-25T08:33:40.768Z,52.84
2023-02-25T08:36:10.485Z,50.59
2023-02-25T08:38:38.756Z,52.13
2023-02-25T08:41:09.434Z,51.74
2023-02-25T08:43:38.289Z,52.60
2023-02-25T08:46:07.326Z,51.09
2023-02-25T08:48:36.041Z,49.32
2023-02-25T08:51:08.225Z,47.07
2023-02-25T08:53:37.045Z,47.49
2023-02-25T08:56:05.681Z,48.03
2023-02-25T08:58:35.003Z,45.77
2023-02-25T09:01:03.896Z,48.22
2023-02-25T09:03:31.912Z,47.20
2023-02-25T09:05:59.749Z,47.96
2023-02-25T09:08:28.418Z,47.78
2023-02-25T09:10:56.386Z,49.58
2023-02-25T09:13:24.422Z,50.23
2023-02-25T09:15:58.570Z,50.60
2023-02-25T09:18:27.188Z,49.83
2023-02-25T09:20:56.724Z,50.30
2023-02-25T09:23:24.613Z,49.64
2023-02-25T09:25:52.533Z,50.06
2023-02-25T09:28:21.998Z,52.28
2023-02-25T09:30:55.202Z,52.31
2023-02-25T09:33:24.682Z,51.31
2023-02-25T09:35:54.632Z,51.40
2023-02-25T09:38:22.502Z,52.39
2023-02-25T09:40:50.728Z,52.04
2023-02-25T09:43:26.259Z,51.81
2023-02-25T09:45:55.492Z,52.48
2023-02-25T09:48:30.482Z,50.09
2023-02-25T09:51:04.861Z,51.55
2023-02-25T09:53:37.341Z,52.36
2023-02-25T09:56:07.746Z,53.56
2023-02-25T09:58:42.726Z,56.40
2023-02-25T10:01:21.577Z,58.05
2023-02-25T10:03:58.411Z,56.41
2023-02-25T10:06:32.694Z,55.75
2023-02-25T10:09:10.284Z,56.17
2023-02-25T10:11:47.487Z,54.62
2023-02-25T10:14:32.737Z,53.93
2023-02-25T10:17:09.952Z,52.24
2023-02-25T10:19:49.491Z,53.91
2023-02-25T10:22:34.376Z,52.39
2023-02-25T10:25:11.855Z,53.68
2023-02-25T10:27:46.447Z,52.67
2023-02-25T10:30:18.210Z,50.83
2023-02-25T10:32:47.079Z,52.03
2023-02-25T10:35:22.954Z,53.16
2023-02-25T10:37:51.286Z,52.07
2023-02-25T10:40:21.293Z,52.17
2023-02-25T10:42:51.982Z,53.89
2023-02-25T10:45:25.093Z,56.69
2023-02-25T10:47:59.437Z,54.37
2023-02-25T10:50:44.437Z,51.67
2023-02-25T10:53:15.781Z,47.54
2023-02-25T10:55:52.385Z,49.20
2023-02-25T10:58:28.381Z,49.83
2023-02-25T11:01:00.956Z,49.09
2023-02-25T11:03:32.760Z,50.23
2023-02-25T11:06:27.586Z,49.25
2023-02-25T11:09:01.052Z,46.84
2023-02-25T11:11:32.280Z,46.32
2023-02-25T11:14:03.724Z,45.70
2023-02-25T11:16:35.167Z,45.85
2023-02-25T11:19:11.801Z,47.16
2023-02-25T11:21:43.219Z,47.19
2023-02-25T11:24:17.059Z,46.43
2023-02-25T11:26:48.431Z,47.99
2023-02-25T11:29:21.773Z,46.00
2023-02-25T11:31:53.778Z,44.21
2023-02-25T11:34:25.252Z,46.62
2023-02-25T11:36:55.590Z,47.89
2023-02-25T11:39:26.912Z,46.35
2023-02-25T11:41:57.973Z,48.97
2023-02-25T11:44:29.575Z,47.09
2023-02-25T11:47:09.036Z,47.34
2023-02-25T11:50:13.332Z,47.19
2023-02-25T11:53:02.455Z,45.27
2023-02-25T11:55:50.619Z,43.62
2023-02-25T11:58:32.116Z,44.98
2023-02-25T12:01:04.785Z,46.62
2023-02-25T12:04:01.892Z,46.33
2023-02-25T12:06:45.736Z,47.16
2023-02-25T12:10:02.308Z,47.20
2023-02-25T12:12:56.969Z,47.73
2023-02-25T12:16:01.411Z,48.52
2023-02-25T12:19:02.567Z,48.43
2023-02-25T12:22:04.033Z,48.60
2023-02-25T12:24:58.502Z,46.93
2023-02-25T12:27:57.526Z,47.86
2023-02-25T12:30:49.899Z,47.91
2023-02-25T12:33:47.145Z,47.49
2023-02-25T12:36:27.235Z,46.39
2023-02-25T12:39:20.352Z,45.13
2023-02-25T12:42:04.771Z,45.06
2023-02-25T12:45:17.388Z,46.54
2023-02-25T12:48:02.928Z,44.81
2023-02-25T12:50:58.522Z,45.02
2023-02-25T12:53:37.386Z,43.94
2023-02-25T12:56:43.783Z,44.82
2023-02-25T12:59:52.294Z,44.87
2023-02-25T13:02:44.514Z,42.85
2023-02-25T13:05:43.853Z,43.97
2023-02-25T13:08:27.469Z,44.06
2023-02-25T13:11:03.829Z,44.72
2023-02-25T13:13:50.680Z,44.38
2023-02-25T13:16:30.892Z,45.19
2023-02-25T13:19:16.434Z,44.95
2023-02-25T13:21:56.338Z,46.86
2023-02-25T13:24:46.375Z,46.26
2023-02-25T13:27:28.375Z,46.02
2023-02-25T13:30:10.085Z,43.88
2023-02-25T13:32:48.468Z,44.98
2023-02-25T13:35:30.209Z,44.73
2023-02-25T13:38:15.910Z,44.25
2023-02-25T13:41:05.350Z,43.49
2023-02-25T13:43:57.595Z,45.09
2023-02-25T13:46:44.872Z,43.78
2023-02-25T13:49:47.512Z,42.63
2023-02-25T13:52:27.659Z,41.66
2023-02-25T13:55:09.899Z,39.51
2023-02-25T13:58:02.885Z,38.85
2023-02-25T14:00:52.198Z,39.65
2023-02-25T14:03:49.990Z,39.21
2023-02-25T14:06:36.267Z,38.50
2023-02-25T14:09:18.253Z,37.55
2023-02-25T14:12:06.343Z,37.84
2023-02-25T14:15:22.878Z,39.52
2023-02-25T14:18:13.115Z,39.64
2023-02-25T14:20:50.801Z,40.32
2023-02-25T14:23:31.148Z,40.93
2023-02-25T14:26:20.127Z,40.70
2023-02-25T14:29:00.494Z,40.60
2023-02-25T14:31:38.036Z,39.69
2023-02-25T14:34:19.352Z,39.95
2023-02-25T14:36:57.869Z,37.61
2023-02-25T14:39:44.308Z,37.67
2023-02-25T14:42:39.096Z,39.78
2023-02-25T14:45:19.508Z,39.87
2023-02-25T14:47:55.540Z,39.61
2023-02-25T14:50:28.357Z,38.91
2023-02-25T14:53:29.723Z,38.45
2023-02-25T14:56:37.008Z,38.50
2023-02-25T14:59:24.339Z,36.88
2023-02-25T15:02:17.889Z,37.65
2023-02-25T15:05:10.142Z,37.71
2023-02-25T15:07:56.630Z,37.79
2023-02-25T15:10:49.513Z,38.66
2023-02-25T15:13:49.220Z,38.85
2023-02-25T15:16:42.680Z,39.55
2023-02-25T15:19:46.186Z,38.79
2023-02-25T15:22:23.955Z,39.02
2023-02-25T15:24:53.264Z,37.58
2023-02-25T15:27:47.746Z,37.23
2023-02-25T15:30:19.814Z,37.02
2023-02-25T15:33:08.086Z,37.57
2023-02-25T15:35:58.215Z,37.59
2023-02-25T15:38:47.204Z,36.99
2023-02-25T15:41:44.724Z,36.90
2023-02-25T15:44:35.521Z,38.37
2023-02-25T15:47:26.027Z,38.06
2023-02-25T15:49:55.629Z,38.71
2023-02-25T15:52:55.699Z,38.76
2023-02-25T15:55:39.826Z,39.20
2023-02-25T15:58:46.583Z,39.01
2023-02-25T16:01:27.368Z,39.13
2023-02-25T16:03:56.711Z,38.24
2023-02-25T16:06:32.163Z,37.58
2023-02-25T16:09:08.205Z,37.52
2023-02-25T16:11:39.314Z,36.98
2023-02-25T16:14:14.670Z,36.61
2023-02-25T16:16:48.054Z,38.03
2023-02-25T16:19:20.118Z,39.48
2023-02-25T16:21:50.231Z,38.97
2023-02-25T16:24:19.696Z,39.05
2023-02-25T16:26:58.701Z,38.85
2023-02-25T16:29:41.127Z,39.42
2023-02-25T16:32:17.284Z,38.32
2023-02-25T16:34:52.189Z,38.38
2023-02-25T16:37:28.089Z,38.49
2023-02-25T16:39:56.005Z,37.48
2023-02-25T16:42:24.016Z,37.53
2023-02-25T16:45:00.146Z,37.77
2023-02-25T16:47:30.511Z,38.16
2023-02-25T16:50:03.984Z,37.66
2023-02-25T16:52:34.549Z,37.87
2023-02-25T16:55:05.524Z,38.92
2023-02-25T16:57:37.683Z,40.02
2023-02-25T17:00:14.218Z,39.84
2023-02-25T17:02:47.199Z,41.44
2023-02-25T17:05:29.990Z,42.33
2023-02-25T17:07:59.755Z,41.87
2023-02-25T17:10:30.745Z,43.66
2023-02-25T17:13:00.940Z,44.01
2023-02-25T17:15:31.637Z,43.15
2023-02-25T17:18:08.036Z,42.74
2023-02-25T17:20:37.820Z,41.97
2023-02-25T17:23:08.527Z,46.02
2023-02-25T17:25:39.236Z,48.63
2023-02-25T17:28:09.180Z,50.86
2023-02-25T17:30:41.511Z,48.35
2023-02-25T17:33:22.226Z,48.28
2023-02-25T17:35:55.057Z,47.51
2023-02-25T17:38:25.848Z,46.37
2023-02-25T17:40:55.250Z,45.67
2023-02-25T17:43:27.253Z,46.68
2023-02-25T17:45:57.962Z,45.16
2023-02-25T17:48:31.279Z,45.80
2023-02-25T17:51:05.927Z,45.85
2023-02-25T17:53:41.831Z,45.62
2023-02-25T17:56:13.756Z,46.96
2023-02-25T17:58:41.577Z,47.84
2023-02-25T18:01:24.047Z,48.93
2023-02-25T18:03:52.986Z,49.46
2023-02-25T18:06:44.931Z,50.45
2023-02-25T18:09:37.946Z,51.34
2023-02-25T18:12:08.415Z,51.92
2023-02-25T18:14:38.736Z,51.78
2023-02-25T18:17:15.192Z,52.24
2023-02-25T18:19:46.218Z,52.38
2023-02-25T18:22:42.284Z,51.46
2023-02-25T18:25:32.579Z,51.46
2023-02-25T18:28:00.447Z,52.54
2023-02-25T18:30:30.541Z,51.03
2023-02-25T18:32:59.122Z,51.07
2023-02-25T18:35:29.156Z,50.57
2023-02-25T18:37:59.491Z,50.38
2023-02-25T18:40:30.540Z,50.87
2023-02-25T18:42:58.947Z,50.86
2023-02-25T18:45:31.669Z,50.60
2023-02-25T18:48:00.289Z,50.35
2023-02-25T18:50:31.073Z,50.26
2023-02-25T18:53:00.942Z,51.17
2023-02-25T18:55:31.542Z,50.14
2023-02-25T18:57:59.803Z,50.42
2023-02-25T19:00:28.288Z,49.90
2023-02-25T19:02:58.766Z,50.33
2023-02-25T19:05:27.249Z,49.46
2023-02-25T19:07:56.341Z,49.52
2023-02-25T19:10:28.191Z,49.01
2023-02-25T19:13:02.796Z,49.82
2023-02-25T19:15:31.187Z,49.45
2023-02-25T19:17:59.047Z,48.80
2023-02-25T19:20:26.955Z,48.90
2023-02-25T19:22:55.429Z,48.98
2023-02-25T19:25:27.158Z,49.21
2023-02-25T19:27:57.627Z,48.43
2023-02-25T19:30:27.370Z,50.37
2023-02-25T19:32:55.413Z,49.79
2023-02-25T19:35:23.146Z,50.23
2023-02-25T19:37:50.822Z,48.77
2023-02-25T19:40:18.563Z,48.47
2023-02-25T19:42:48.825Z,49.01
2023-02-25T19:45:19.544Z,47.45
2023-02-25T19:47:47.755Z,47.65
2023-02-25T19:50:16.611Z,48.65
2023-02-25T19:52:45.195Z,47.79
2023-02-25T19:55:14.330Z,48.24
2023-02-25T19:57:42.601Z,46.77
2023-02-25T20:00:15.109Z,48.82
2023-02-25T20:02:43.093Z,47.72
2023-02-25T20:05:11.544Z,47.33
2023-02-25T20:07:39.723Z,50.08
2023-02-25T20:10:10.924Z,48.85
2023-02-25T20:12:38.780Z,49.81
2023-02-25T20:15:07.227Z,47.90
2023-02-25T20:17:38.268Z,47.16
2023-02-25T20:20:08.323Z,49.49
2023-02-25T20:22:36.479Z,47.57
2023-02-25T20:25:04.897Z,46.58
2023-02-25T20:27:33.412Z,47.25
2023-02-25T20:30:01.157Z,48.48
2023-02-25T20:32:30.095Z,48.34
2023-02-25T20:34:59.758Z,48.10
2023-02-25T20:37:31.293Z,48.50
2023-02-25T20:40:00.377Z,48.20
2023-02-25T20:42:30.088Z,48.44
2023-02-25T20:44:59.558Z,48.75
2023-02-25T20:47:29.432Z,47.57
2023-02-25T20:49:59.497Z,49.44
2023-02-25T20:52:28.144Z,49.05
2023-02-25T20:54:56.025Z,48.55
2023-02-25T20:57:26.592Z,48.98
2023-02-25T20:59:54.907Z,48.94
2023-02-25T21:02:23.542Z,47.86
2023-02-25T21:04:51.960Z,49.43
2023-02-25T21:07:21.100Z,47.77
2023-02-25T21:09:48.839Z,49.07
2023-02-25T21:12:16.560Z,49.32
2023-02-25T21:14:44.430Z,50.19
2023-02-25T21:17:13.646Z,49.25
2023-02-25T21:19:41.606Z,50.30
2023-02-25T21:22:10.035Z,49.62
2023-02-25T21:24:39.588Z,49.68
2023-02-25T21:27:07.594Z,48.51
2023-02-25T21:29:35.931Z,47.33
2023-02-25T21:32:03.824Z,48.46
2023-02-25T21:34:31.857Z,48.15
2023-02-25T21:36:59.691Z,49.08
2023-02-25T21:39:28.073Z,48.51
2023-02-25T21:41:57.228Z,48.72
2023-02-25T21:44:25.271Z,49.13
2023-02-25T21:46:53.053Z,49.16
2023-02-25T21:49:21.163Z,49.30
2023-02-25T21:51:49.260Z,49.12
2023-02-25T21:54:17.271Z,49.17
2023-02-25T21:56:45.107Z,49.20
2023-02-25T21:59:14.247Z,49.35
2023-02-25T22:01:42.671Z,49.12
2023-02-25T22:04:11.180Z,49.75
2023-02-25T22:06:39.235Z,49.85
2023-02-25T22:09:07.388Z,49.40
2023-02-25T22:11:37.719Z,49.38
2023-02-25T22:14:07.680Z,48.27
2023-02-25T22:16:37.962Z,49.52
2023-02-25T22:19:06.332Z,49.12
2023-02-25T22:21:35.489Z,48.51
2023-02-25T22:24:05.103Z,49.17
2023-02-25T22:26:35.617Z,49.08
2023-02-25T22:29:06.710Z,48.71
2023-02-25T22:31:36.430Z,48.58
2023-02-25T22:34:04.506Z,48.22
2023-02-25T22:36:32.468Z,48.55
2023-02-25T22:39:00.350Z,48.13
2023-02-25T22:41:30.310Z,49.30
2023-02-25T22:43:59.887Z,50.52
2023-02-25T22:46:29.666Z,49.81
2023-02-25T22:48:59.284Z,50.40
2023-02-25T22:51:28.650Z,51.07
2023-02-25T22:53:56.839Z,50.51
2023-02-25T22:56:25.821Z,49.77
2023-02-25T22:58:54.063Z,49.92
2023-02-25T23:01:24.623Z,50.43
2023-02-25T23:03:53.514Z,51.19
2023-02-25T23:06:34.307Z,52.05
2023-02-25T23:09:10.031Z,51.13
2023-02-25T23:11:37.856Z,51.94
2023-02-25T23:14:06.085Z,51.16
2023-02-25T23:16:36.701Z,50.62
2023-02-25T23:19:06.025Z,53.61
2023-02-25T23:21:38.483Z,51.37
2023-02-25T23:24:08.374Z,51.27
2023-02-25T23:26:41.442Z,51.67
2023-02-25T23:29:10.920Z,51.32
2023-02-25T23:31:42.320Z,51.67
2023-02-25T23:34:11.815Z,52.53
2023-02-25T23:36:43.271Z,53.56
2023-02-25T23:39:12.389Z,54.23
2023-02-25T23:41:40.494Z,54.04
2023-02-25T23:44:09.509Z,53.44
2023-02-25T23:46:38.146Z,53.66
2023-02-25T23:49:08.399Z,52.90
2023-02-25T23:51:37.053Z,53.20
2023-02-25T23:54:07.210Z,54.50
2023-02-25T23:56:35.418Z,55.99
2023-02-25T23:59:04.142Z,54.23
